Time;durP1;ratioP1;P1;durP2;ratioP2;P2;SDS_P1;SDS_P2;PMS_P1;PMS_P2;Temp;Humidity;BMP_temperature;BMP_pressure;BME280_temperature;BME280_humidity;BME280_pressure;Samples;Min_cycle;Max_cycle;Signal;HPM_P1;HPM_P2
2022/01/25 00:08:53;;;;;;;;;66.67;53.33;;;;;3.70;72.64;102584.69;4985766;28;45334;-82
2022/01/25 00:25:10;;;;;;;;;75.33;59.00;;;;;3.51;73.32;102576.50;4976187;28;45433;-83
2022/01/25 00:28:16;;;;;;;;;70.33;56.67;;;;;3.31;73.10;102563.06;4982656;28;45412;-80
2022/01/25 00:30:41;;;;;;;;;70.67;54.00;;;;;3.19;72.89;102557.06;4993049;28;45169;-79
2022/01/25 00:33:07;;;;;;;;;68.00;53.00;;;;;3.40;73.49;102604.44;4997192;28;47696;-81
2022/01/25 00:35:32;;;;;;;;;70.67;54.33;;;;;3.38;73.12;102598.25;5001202;28;45416;-80
2022/01/25 00:37:57;;;;;;;;;69.00;54.67;;;;;2.91;73.25;102532.59;4997362;28;45420;-81
2022/01/25 00:40:23;;;;;;;;;66.67;56.00;;;;;3.29;73.20;102597.63;4996823;28;45450;-82
2022/01/25 00:42:48;;;;;;;;;67.67;53.33;;;;;3.18;73.00;102577.78;4996214;28;46200;-83
2022/01/25 00:45:15;;;;;;;;;66.33;54.33;;;;;2.96;73.29;102554.59;4995870;28;46054;-82
2022/01/25 00:47:46;;;;;;;;;73.25;59.75;;;;;3.31;74.37;102594.31;4997414;28;45431;-83
2022/01/25 00:50:14;;;;;;;;;68.00;56.00;;;;;3.20;73.39;102579.69;4997581;28;45358;-82
2022/01/25 00:55:09;;;;;;;;;71.67;57.33;;;;;3.22;74.35;102583.28;4996850;28;45305;-82
2022/01/25 00:57:35;;;;;;;;;71.33;54.67;;;;;3.05;74.03;102563.94;4996827;28;45419;-83
2022/01/25 01:00:00;;;;;;;;;70.33;58.33;;;;;3.23;73.80;102586.78;4982005;28;45461;-83
2022/01/25 01:02:26;;;;;;;;;73.67;57.67;;;;;3.22;73.70;102593.69;4976711;28;46051;-82
2022/01/25 01:04:51;;;;;;;;;71.00;60.33;;;;;2.97;74.11;102540.78;4976884;28;45321;-83
2022/01/25 01:07:17;;;;;;;;;72.67;56.67;;;;;2.93;74.08;102538.78;4977352;28;45714;-83
2022/01/25 01:09:46;;;;;;;;;79.50;61.50;;;;;3.24;74.58;102584.28;4981556;28;45359;-82
2022/01/25 01:12:35;;;;;;;;;78.50;62.00;;;;;3.24;75.04;102588.59;4997888;28;45292;-83
2022/01/25 01:39:56;;;;;;;;;81.75;65.00;;;;;2.85;73.81;102574.69;4976531;28;45512;-82
2022/01/25 01:44:24;;;;;;;;;78.50;61.25;;;;;2.85;73.77;102595.53;4974903;28;45315;-82
2022/01/25 01:47:06;;;;;;;;;82.00;63.75;;;;;2.61;73.51;102570.44;4993280;28;45380;-82
2022/01/25 01:49:39;;;;;;;;;84.25;65.50;;;;;2.68;73.88;102589.16;4996267;28;45350;-82
2022/01/25 01:52:06;;;;;;;;;81.50;60.75;;;;;2.65;73.64;102586.34;4996284;28;45282;-82
2022/01/25 01:54:32;;;;;;;;;85.75;66.25;;;;;2.62;73.35;102572.25;4995831;28;45371;-82
2022/01/25 01:56:57;;;;;;;;;74.00;62.00;;;;;2.62;74.05;102588.75;4996031;28;45219;-82
2022/01/25 01:59:23;;;;;;;;;84.75;63.25;;;;;2.67;73.88;102599.47;4996128;28;45219;-82
2022/01/25 02:01:50;;;;;;;;;83.50;63.75;;;;;2.63;74.50;102602.66;4996191;28;45392;-83
2022/01/25 02:04:17;;;;;;;;;89.00;66.25;;;;;2.23;74.64;102542.66;4996216;28;46762;-82
2022/01/25 02:06:45;;;;;;;;;84.50;65.00;;;;;2.45;74.66;102577.19;4981549;28;45865;-82
2022/01/25 02:09:11;;;;;;;;;78.50;62.00;;;;;2.58;74.56;102612.75;4998009;28;45237;-82
2022/01/25 02:11:39;;;;;;;;;80.75;61.75;;;;;2.34;74.95;102574.63;4999756;28;45515;-83
2022/01/25 02:14:08;;;;;;;;;77.75;60.25;;;;;2.50;74.84;102612.19;4988030;28;46998;-80
2022/01/25 02:24:40;;;;;;;;;74.00;59.00;;;;;1.85;75.41;102524.38;4975883;28;45360;-81
2022/01/25 02:27:06;;;;;;;;;83.25;60.50;;;;;2.04;75.29;102568.16;4978106;28;45468;-81
2022/01/25 02:29:32;;;;;;;;;79.75;63.00;;;;;2.16;75.53;102598.53;4991915;28;45223;-81
2022/01/25 02:31:58;;;;;;;;;81.00;59.25;;;;;2.14;75.81;102601.81;4999341;28;45298;-81
2022/01/25 02:34:24;;;;;;;;;82.00;60.50;;;;;2.09;75.62;102596.28;4998618;28;45404;-82
2022/01/25 02:37:02;;;;;;;;;77.75;59.25;;;;;2.15;75.27;102606.25;4998664;28;45348;-81
2022/01/25 02:39:28;;;;;;;;;72.75;55.75;;;;;2.05;75.43;102585.56;4998969;28;45372;-81
2022/01/25 02:41:54;;;;;;;;;74.25;60.75;;;;;1.95;75.26;102573.59;4998680;28;45389;-81
2022/01/25 02:44:26;;;;;;;;;72.00;57.25;;;;;2.10;75.44;102607.59;4983199;28;45368;-81
2022/01/25 02:49:19;;;;;;;;;84.00;60.00;;;;;2.02;75.74;102609.63;4978760;28;45314;-81
2022/01/25 02:51:47;;;;;;;;;82.75;63.25;;;;;1.93;75.99;102617.66;4979448;28;45270;-81
2022/01/25 02:54:15;;;;;;;;;74.50;56.25;;;;;1.74;76.13;102588.56;4978938;28;45294;-82
2022/01/25 02:56:43;;;;;;;;;74.50;57.50;;;;;1.82;76.45;102623.78;4993392;28;45444;-81
2022/01/25 02:59:10;;;;;;;;;69.75;58.00;;;;;1.65;76.37;102593.97;4989513;28;45392;-81
2022/01/25 03:01:38;;;;;;;;;73.50;58.50;;;;;1.75;76.96;102616.34;4979428;28;45913;-82
2022/01/25 03:04:05;;;;;;;;;72.75;57.75;;;;;1.57;77.07;102597.72;4978672;28;46094;-82
2022/01/25 03:06:31;;;;;;;;;68.75;54.75;;;;;1.69;77.06;102616.81;4997014;28;45262;-83
2022/01/25 03:08:56;;;;;;;;;73.50;58.00;;;;;1.71;76.94;102611.72;4997739;28;45596;-83
2022/01/25 03:11:24;;;;;;;;;71.00;57.00;;;;;1.73;77.26;102624.81;4998611;28;45305;-83
2022/01/25 03:13:53;;;;;;;;;67.50;53.00;;;;;1.69;76.73;102615.91;4998327;28;45297;-82
2022/01/25 03:16:32;;;;;;;;;67.00;52.50;;;;;1.50;76.67;102586.78;4997882;28;45341;-81
2022/01/25 03:19:02;;;;;;;;;71.25;57.50;;;;;1.63;76.93;102605.06;4998441;28;45429;-83
2022/01/25 03:23:55;;;;;;;;;72.25;59.00;;;;;1.60;77.63;102604.84;4997963;28;45350;-83
2022/01/25 03:26:22;;;;;;;;;67.25;52.50;;;;;1.54;77.50;102594.91;4998596;28;45454;-83
2022/01/25 03:28:48;;;;;;;;;69.50;56.00;;;;;1.42;77.54;102570.63;4996713;28;45332;-82
2022/01/25 03:31:14;;;;;;;;;66.50;51.75;;;;;1.39;77.52;102572.97;4999297;28;45420;-84
2022/01/25 03:33:40;;;;;;;;;71.00;55.75;;;;;1.59;77.66;102603.03;5000041;28;45949;-81
2022/01/25 03:36:07;;;;;;;;;70.25;56.50;;;;;1.51;77.57;102589.50;4997693;28;45452;-81
2022/01/25 03:38:34;;;;;;;;;72.75;52.50;;;;;1.36;77.81;102557.19;4996843;28;45226;-81
2022/01/25 03:41:01;;;;;;;;;63.50;50.00;;;;;1.43;77.31;102565.56;4978646;28;45524;-81
2022/01/25 03:43:27;;;;;;;;;69.50;53.50;;;;;1.61;77.47;102589.38;4978080;28;45433;-81
2022/01/25 03:46:04;;;;;;;;;76.00;56.75;;;;;1.60;76.91;102584.97;4978107;28;45537;-81
2022/01/25 03:50:56;;;;;;;;;68.75;56.25;;;;;1.40;77.05;102554.03;4978285;28;45322;-81
2022/01/25 03:53:21;;;;;;;;;74.75;58.50;;;;;1.51;77.15;102579.09;4978068;28;45341;-81
2022/01/25 03:55:48;;;;;;;;;70.50;55.25;;;;;1.26;77.48;102531.34;4977722;28;45349;-81
2022/01/25 03:58:14;;;;;;;;;64.25;51.00;;;;;1.48;78.13;102567.56;4983364;28;45437;-81
2022/01/25 04:00:41;;;;;;;;;72.50;57.75;;;;;1.47;77.91;102578.75;4997169;28;45429;-81
2022/01/25 04:03:19;;;;;;;;;70.75;56.00;;;;;1.45;77.94;102580.34;4997525;28;45400;-81
2022/01/25 04:08:11;;;;;;;;;68.25;53.50;;;;;1.29;78.15;102557.53;4999676;28;45290;-81
2022/01/25 04:10:37;;;;;;;;;73.00;59.25;;;;;1.41;79.08;102579.22;4983552;28;45632;-81
2022/01/25 04:13:04;;;;;;;;;72.00;57.50;;;;;1.42;78.51;102586.22;4978603;28;45665;-81
2022/01/25 04:15:30;;;;;;;;;69.75;54.75;;;;;1.37;78.59;102577.16;4997590;28;45377;-81
2022/01/25 04:20:41;;;;;;;;;68.50;54.75;;;;;1.22;78.55;102547.50;4995633;28;45365;-81
2022/01/25 04:25:51;;;;;;;;;65.00;52.50;;;;;1.62;78.65;102600.66;4997249;28;45408;-81
2022/01/25 04:28:16;;;;;;;;;60.75;50.50;;;;;1.66;77.47;102592.28;4991215;28;45435;-83
2022/01/25 04:30:44;;;;;;;;;65.00;52.50;;;;;1.61;77.20;102572.88;4978001;28;45365;-81
2022/01/25 04:33:24;;;;;;;;;74.75;56.25;;;;;1.75;77.46;102605.03;4977306;28;45402;-82
2022/01/25 04:36:09;;;;;;;;;72.50;56.50;;;;;1.66;77.54;102577.59;4977578;28;45296;-81
2022/01/25 04:49:40;;;;;;;;;65.00;52.67;;;;;2.00;77.07;102611.22;4924717;28;45355;-82
2022/01/25 04:52:10;;;;;;;;;63.50;50.25;;;;;2.07;76.76;102616.09;4901199;28;45662;-81
2022/01/25 05:00:11;;;;;;;;;65.00;50.67;;;;;1.91;76.28;102569.00;4917189;28;45277;-82
2022/01/25 05:02:52;;;;;;;;;64.00;49.67;;;;;1.91;75.82;102580.28;4917285;28;45429;-82
2022/01/25 05:05:22;;;;;;;;;70.33;53.33;;;;;1.94;76.83;102600.38;4916504;28;45552;-83
2022/01/25 05:10:48;;;;;;;;;60.67;50.33;;;;;1.73;77.20;102591.03;4879140;29;45495;-82
2022/01/25 05:16:04;;;;;;;;;52.00;46.00;;;;;1.74;77.72;102611.94;4878732;29;45843;-83
2022/01/25 05:18:43;;;;;;;;;65.67;47.33;;;;;1.75;77.50;102613.75;4871370;29;45895;-81
2022/01/25 05:23:53;;;;;;;;;53.00;44.67;;;;;1.56;77.14;102580.31;4897477;29;45489;-82
2022/01/25 05:26:19;;;;;;;;;56.00;47.67;;;;;1.25;77.10;102527.84;4897349;29;46046;-82
2022/01/25 05:28:45;;;;;;;;;64.67;50.00;;;;;1.40;76.86;102564.44;4897847;29;45389;-83
2022/01/25 05:31:10;;;;;;;;;56.33;46.00;;;;;1.45;76.72;102588.13;4897324;29;45467;-83
2022/01/25 05:33:36;;;;;;;;;60.67;49.33;;;;;1.30;77.15;102554.13;4904615;28;45443;-81
2022/01/25 05:36:01;;;;;;;;;62.00;47.25;;;;;1.47;77.09;102590.03;4902319;28;46146;-82
2022/01/25 05:38:27;;;;;;;;;54.33;44.00;;;;;1.52;77.77;102599.09;4898323;29;45732;-82
2022/01/25 05:41:03;;;;;;;;;66.75;51.75;;;;;1.62;77.65;102613.66;4900977;29;45858;-82
2022/01/25 05:48:29;;;;;;;;;52.67;43.67;;;;;1.66;77.47;102620.84;4900647;29;45411;-82
2022/01/25 05:50:56;;;;;;;;;63.25;47.75;;;;;1.60;76.66;102623.94;4900911;28;45426;-82
2022/01/25 05:53:22;;;;;;;;;50.00;44.67;;;;;1.57;77.07;102605.50;4951946;28;45373;-82
2022/01/25 05:55:47;;;;;;;;;55.25;48.25;;;;;1.63;77.32;102615.44;4984581;28;46561;-83
2022/01/25 05:58:13;;;;;;;;;62.25;49.75;;;;;1.57;77.03;102604.59;4962516;28;45396;-83
2022/01/25 06:00:38;;;;;;;;;50.75;45.50;;;;;1.48;77.69;102586.63;4979888;28;45764;-82
2022/01/25 06:03:05;;;;;;;;;63.33;49.67;;;;;1.26;77.58;102566.00;4979818;28;45311;-84
2022/01/25 06:05:35;;;;;;;;;61.67;49.00;;;;;1.58;77.36;102622.91;4979486;28;45476;-82
2022/01/25 06:08:01;;;;;;;;;58.50;49.50;;;;;1.58;77.79;102612.53;4962296;28;45881;-82
2022/01/25 06:10:29;;;;;;;;;56.00;47.25;;;;;1.61;77.20;102615.34;4999757;28;45516;-82
2022/01/25 06:12:54;;;;;;;;;54.00;48.67;;;;;1.45;76.78;102596.81;4981679;28;45409;-82
2022/01/25 06:15:20;;;;;;;;;68.33;49.33;;;;;1.60;76.91;102608.34;4998262;28;46187;-81
2022/01/25 06:17:46;;;;;;;;;55.00;46.00;;;;;1.43;78.02;102577.63;4980494;28;45292;-82
2022/01/25 06:20:12;;;;;;;;;66.00;50.00;;;;;1.49;77.91;102592.75;4989249;28;45473;-83
2022/01/25 06:22:38;;;;;;;;;59.00;47.00;;;;;1.56;78.17;102603.69;4999497;28;45416;-84
2022/01/25 06:25:04;;;;;;;;;52.00;45.00;;;;;1.43;77.41;102591.50;4997500;28;45749;-82
2022/01/25 06:27:29;;;;;;;;;61.67;48.33;;;;;1.68;78.01;102622.81;4997510;28;45187;-81
2022/01/25 06:29:55;;;;;;;;;56.00;49.25;;;;;1.19;77.83;102552.44;4982938;28;45341;-82
2022/01/25 06:32:20;;;;;;;;;54.50;46.50;;;;;1.31;77.92;102572.44;4981203;28;45570;-83
2022/01/25 06:34:46;;;;;;;;;56.00;45.67;;;;;1.64;77.12;102615.56;4969894;28;47191;-83
2022/01/25 06:37:13;;;;;;;;;65.50;49.75;;;;;1.79;77.22;102627.88;4991040;28;45449;-81
2022/01/25 06:39:40;;;;;;;;;76.00;61.00;;;;;1.52;77.18;102582.59;4988414;28;45483;-81
2022/01/25 06:42:06;;;;;;;;;53.33;47.33;;;;;1.08;77.10;102490.25;4990461;28;45246;-79
2022/01/25 06:44:34;;;;;;;;;47.33;43.00;;;;;1.03;76.34;102480.34;4991261;28;45199;-84
2022/01/25 06:47:01;;;;;;;;;62.25;51.50;;;;;1.75;77.06;102615.44;4987011;28;45467;-87
2022/01/25 06:49:26;;;;;;;;;68.75;58.00;;;;;1.51;77.49;102579.09;5010244;28;45428;-83
2022/01/25 06:51:51;;;;;;;;;69.75;53.25;;;;;1.15;77.52;102517.59;5011276;28;45459;-86
2022/01/25 06:54:17;;;;;;;;;64.50;51.75;;;;;1.07;77.91;102509.22;4979680;28;46989;-88
2022/01/25 06:56:42;;;;;;;;;67.50;56.00;;;;;1.68;77.43;102632.28;4999028;28;45583;-89
2022/01/25 06:59:08;;;;;;;;;78.25;60.00;;;;;1.36;77.76;102555.50;4970851;28;44867;-89
2022/01/25 07:01:34;;;;;;;;;71.50;53.25;;;;;1.02;77.70;102500.19;4997030;28;45476;-88
2022/01/25 07:04:00;;;;;;;;;65.75;53.50;;;;;1.68;77.62;102615.00;5002395;28;45416;-85
2022/01/25 07:06:25;;;;;;;;;81.75;65.50;;;;;1.06;78.38;102496.13;5007863;28;45473;-88
2022/01/25 07:08:52;;;;;;;;;80.25;61.00;;;;;1.26;78.33;102532.25;4993832;28;45487;-84
2022/01/25 07:11:17;;;;;;;;;68.75;52.25;;;;;1.58;77.48;102611.59;4992999;28;45285;-83
2022/01/25 07:13:43;;;;;;;;;58.25;46.75;;;;;1.74;77.46;102626.63;4989170;28;45693;-85
2022/01/25 07:16:08;;;;;;;;;79.75;61.25;;;;;1.47;77.66;102568.34;4989269;28;45479;-82
2022/01/25 07:18:34;;;;;;;;;75.50;61.75;;;;;1.33;77.80;102546.59;4989998;28;45372;-87
2022/01/25 07:21:00;;;;;;;;;77.25;60.50;;;;;1.60;78.65;102592.75;4988219;28;45483;-87
2022/01/25 07:23:25;;;;;;;;;85.50;64.00;;;;;1.77;78.02;102629.44;4969106;28;47751;-88
2022/01/25 07:25:51;;;;;;;;;73.50;61.25;;;;;1.43;78.39;102568.16;5009268;28;45331;-86
2022/01/25 07:28:17;;;;;;;;;81.25;66.25;;;;;1.79;78.88;102631.38;5009575;28;45404;-88
2022/01/25 07:30:45;;;;;;;;;82.25;63.50;;;;;1.80;78.26;102637.47;5003420;28;45475;-94
2022/01/25 07:33:10;;;;;;;;;82.25;66.00;;;;;1.13;78.56;102519.16;4999608;28;46155;-88
2022/01/25 07:35:37;;;;;;;;;80.75;62.75;;;;;1.77;78.16;102643.34;4996756;28;45447;-92
2022/01/25 07:38:03;;;;;;;;;87.50;66.25;;;;;0.90;78.56;102485.41;5001104;28;45553;-92
2022/01/25 07:40:29;;;;;;;;;86.75;67.00;;;;;1.78;78.47;102639.97;5011553;28;45365;-85
2022/01/25 07:42:55;;;;;;;;;87.50;68.00;;;;;1.25;78.79;102542.53;5003151;28;45673;-92
2022/01/25 07:45:23;;;;;;;;;69.00;57.00;;;;;1.24;78.27;102551.09;4993241;28;45611;-93
2022/01/25 07:47:50;;;;;;;;;80.00;63.25;;;;;1.28;78.34;102547.94;4984040;28;46257;-83
2022/01/25 07:50:15;;;;;;;;;87.00;67.50;;;;;1.16;78.92;102523.69;4997855;28;45583;-86
2022/01/25 07:52:41;;;;;;;;;88.00;65.50;;;;;1.74;78.20;102624.03;4999783;28;45978;-83
2022/01/25 07:55:07;;;;;;;;;71.75;55.00;;;;;1.82;78.44;102643.69;5002397;28;46301;-87
2022/01/25 07:57:34;;;;;;;;;84.00;64.75;;;;;1.80;78.15;102620.19;4996998;28;45424;-92
2022/01/25 08:00:00;;;;;;;;;69.25;53.50;;;;;2.06;78.20;102647.16;4971406;28;45521;-89
2022/01/25 08:02:26;;;;;;;;;85.75;66.25;;;;;1.19;77.71;102487.53;4982750;28;46150;-90
2022/01/25 08:04:51;;;;;;;;;86.00;65.75;;;;;1.24;77.43;102479.31;4976069;28;45659;-88
2022/01/25 08:07:17;;;;;;;;;84.00;62.75;;;;;2.20;77.11;102636.06;4987001;28;45344;-85
2022/01/25 08:09:43;;;;;;;;;72.75;58.50;;;;;1.34;76.50;102467.91;4986364;28;45428;-85
2022/01/25 08:12:11;;;;;;;;;84.50;64.00;;;;;1.98;76.62;102579.03;4987705;28;45954;-86
2022/01/25 08:14:37;;;;;;;;;86.25;67.75;;;;;2.50;76.69;102646.00;4995761;28;45464;-86
2022/01/25 08:17:03;;;;;;;;;81.75;65.50;;;;;2.29;76.45;102596.00;5011383;28;44715;-91
2022/01/25 08:19:29;;;;;;;;;85.00;66.50;;;;;1.95;75.88;102529.41;4968556;28;45471;-90
2022/01/25 08:21:54;;;;;;;;;78.00;61.50;;;;;2.27;75.72;102581.09;4988997;28;46348;-89
2022/01/25 08:24:20;;;;;;;;;86.75;65.75;;;;;2.18;76.05;102547.53;4986201;28;45341;-92
2022/01/25 08:26:55;;;;;;;;;86.00;65.00;;;;;2.90;75.84;102666.13;4990234;28;45444;-93
2022/01/25 08:29:20;;;;;;;;;76.75;63.25;;;;;2.97;75.53;102678.75;4969818;28;45352;-90
2022/01/25 08:31:45;;;;;;;;;83.25;64.75;;;;;2.22;75.24;102520.06;4986415;28;46509;-86
2022/01/25 08:34:11;;;;;;;;;89.25;67.25;;;;;2.37;74.29;102541.94;4970277;28;45482;-87
2022/01/25 08:36:38;;;;;;;;;90.75;68.25;;;;;3.10;74.81;102656.28;4987778;28;45533;-85
2022/01/25 08:39:05;;;;;;;;;86.00;64.50;;;;;3.21;74.28;102670.03;4990172;28;45537;-87
2022/01/25 08:41:31;;;;;;;;;86.00;66.25;;;;;2.79;74.16;102589.88;4990010;28;46276;-86
2022/01/25 08:43:56;;;;;;;;;87.75;66.25;;;;;3.29;74.38;102671.47;4973331;28;45683;-84
2022/01/25 08:46:22;;;;;;;;;82.00;67.00;;;;;3.18;74.63;102641.19;4987687;28;45349;-88
2022/01/25 08:48:48;;;;;;;;;96.50;71.00;;;;;3.36;73.89;102684.09;4970012;28;45472;-88
2022/01/25 08:51:14;;;;;;;;;98.00;69.00;;;;;2.38;74.17;102493.41;5004815;28;45380;-86
2022/01/25 08:53:41;;;;;;;;;78.25;63.25;;;;;3.43;74.35;102668.06;4981942;28;45449;-87
2022/01/25 08:56:07;;;;;;;;;72.75;56.25;;;;;3.13;74.07;102603.50;4992985;28;45451;-85
2022/01/25 08:58:33;;;;;;;;;86.25;66.25;;;;;3.50;74.14;102658.06;4987222;28;45451;-80
2022/01/25 09:00:58;;;;;;;;;68.67;56.00;;;;;3.24;73.67;102620.75;4985764;28;45502;-82
2022/01/25 09:03:24;;;;;;;;;85.00;61.50;;;;;3.61;74.08;102663.19;4985424;28;45487;-84
2022/01/25 09:05:49;;;;;;;;;66.00;54.33;;;;;3.20;74.22;102603.13;4984489;28;45588;-82
2022/01/25 09:08:21;;;;;;;;;80.00;62.33;;;;;3.73;74.39;102673.53;4985103;28;45429;-83
2022/01/25 09:10:52;;;;;;;;;70.67;58.00;;;;;3.60;73.77;102640.53;4985138;28;45525;-83
2022/01/25 09:13:19;;;;;;;;;77.00;62.67;;;;;3.84;74.06;102662.09;4983475;28;45448;-84
2022/01/25 09:15:45;;;;;;;;;72.33;57.00;;;;;3.67;73.94;102634.94;4984397;28;45422;-85
2022/01/25 09:18:10;;;;;;;;;75.00;59.00;;;;;3.85;73.44;102648.25;4985669;28;45462;-84
2022/01/25 09:20:36;;;;;;;;;81.33;58.33;;;;;3.99;73.50;102673.50;4977797;28;46644;-84
2022/01/25 09:23:01;;;;;;;;;76.33;59.33;;;;;3.81;73.21;102633.22;4961713;28;45960;-81
2022/01/25 09:25:27;;;;;;;;;60.33;52.33;;;;;3.54;72.89;102592.34;4989723;28;45483;-83
2022/01/25 09:27:53;;;;;;;;;79.00;60.67;;;;;3.71;73.59;102615.16;4990174;28;45556;-81
2022/01/25 09:30:19;;;;;;;;;75.67;59.00;;;;;3.46;73.20;102581.41;4963776;28;47860;-82
2022/01/25 09:32:45;;;;;;;;;70.00;56.33;;;;;4.15;73.36;102679.72;4982452;28;45496;-83
2022/01/25 09:35:11;;;;;;;;;75.00;59.00;;;;;4.20;73.02;102689.66;4982311;28;45375;-82
2022/01/25 09:37:37;;;;;;;;;86.67;63.00;;;;;4.15;72.74;102671.91;4958581;28;45355;-87
2022/01/25 09:40:03;;;;;;;;;75.33;60.33;;;;;4.27;72.32;102693.53;4957229;28;47914;-89
2022/01/25 09:42:30;;;;;;;;;76.00;59.00;;;;;4.34;72.44;102685.31;4974461;28;45543;-86
2022/01/25 09:44:57;;;;;;;;;71.33;57.33;;;;;3.79;72.11;102592.22;4974387;28;46650;-86
2022/01/25 09:47:23;;;;;;;;;78.00;59.00;;;;;4.42;72.11;102686.72;4957213;28;45506;-84
2022/01/25 09:49:48;;;;;;;;;77.67;59.33;;;;;3.71;72.02;102550.00;4965668;28;45830;-89
2022/01/25 09:52:14;;;;;;;;;77.00;60.00;;;;;4.45;71.77;102689.50;4978667;28;45470;-88
2022/01/25 09:54:41;;;;;;;;;75.33;60.67;;;;;3.78;72.09;102578.28;4956804;28;45457;-86
2022/01/25 09:57:07;;;;;;;;;80.33;58.00;;;;;3.90;71.61;102579.06;4957828;28;45355;-87
2022/01/25 09:59:32;;;;;;;;;74.33;58.00;;;;;3.99;71.67;102594.38;4956528;28;47394;-87
2022/01/25 10:01:59;;;;;;;;;71.33;58.00;;;;;3.97;71.54;102589.06;4988225;28;45230;-86
2022/01/25 10:04:37;;;;;;;;;78.00;58.00;;;;;4.55;71.49;102704.94;4988258;28;45441;-88
2022/01/25 10:07:08;;;;;;;;;71.33;57.00;;;;;4.52;71.69;102673.44;4993544;28;45372;-87
2022/01/25 10:09:38;;;;;;;;;70.33;57.67;;;;;4.29;71.39;102648.50;4997149;28;45671;-88
2022/01/25 10:12:18;;;;;;;;;75.33;55.33;;;;;4.55;71.54;102699.72;4978594;28;45408;-87
2022/01/25 10:15:13;;;;;;;;;78.00;58.33;;;;;4.35;71.73;102665.34;4996445;28;45343;-89
2022/01/25 10:17:42;;;;;;;;;79.00;60.67;;;;;4.42;71.43;102667.53;4996244;28;45233;-89
2022/01/25 10:20:24;;;;;;;;;71.33;58.00;;;;;4.59;71.57;102690.38;4977596;28;46987;-87
2022/01/25 10:22:50;;;;;;;;;66.33;56.33;;;;;3.85;70.99;102551.81;4978358;28;45803;-87
2022/01/25 10:25:37;;;;;;;;;86.67;62.67;;;;;4.53;71.04;102701.34;4996923;28;45542;-88
2022/01/25 10:28:06;;;;;;;;;69.33;54.67;;;;;3.71;71.03;102565.66;4982157;28;45361;-87
2022/01/25 10:30:36;;;;;;;;;77.00;61.00;;;;;4.48;71.28;102712.31;4981767;28;47993;-87
2022/01/25 10:33:14;;;;;;;;;82.00;60.00;;;;;3.45;71.01;102519.69;4982385;28;45482;-88
2022/01/25 10:35:40;;;;;;;;;80.67;61.67;;;;;4.02;71.96;102619.78;4983125;28;45398;-87
2022/01/25 10:38:17;;;;;;;;;76.00;60.67;;;;;4.35;71.44;102662.72;5020692;28;45507;-87
2022/01/25 10:40:43;;;;;;;;;77.67;59.33;;;;;4.34;70.80;102668.75;5002475;28;45648;-87
2022/01/25 10:43:13;;;;;;;;;77.33;59.00;;;;;3.93;71.17;102566.22;5000295;28;45278;-87
2022/01/25 10:45:39;;;;;;;;;82.67;64.67;;;;;4.76;70.64;102705.41;4982892;28;45474;-87
2022/01/25 10:48:04;;;;;;;;;81.33;61.67;;;;;4.54;70.68;102656.16;5000822;28;45549;-88
2022/01/25 10:50:35;;;;;;;;;88.25;67.50;;;;;4.44;70.42;102647.66;5000522;28;46506;-87
2022/01/25 10:53:07;;;;;;;;;83.00;65.00;;;;;4.79;70.06;102708.19;4983077;28;45408;-88
2022/01/25 10:55:41;;;;;;;;;82.00;64.33;;;;;4.40;69.66;102633.53;5000306;28;45412;-87
2022/01/25 10:58:07;;;;;;;;;84.67;63.00;;;;;4.08;69.04;102557.56;4999746;28;45286;-87
2022/01/25 11:00:36;;;;;;;;;76.33;58.67;;;;;4.89;69.04;102690.50;4998994;28;45616;-87
2022/01/25 11:03:06;;;;;;;;;83.00;63.33;;;;;4.93;68.84;102698.59;4999407;28;45464;-87
2022/01/25 11:05:34;;;;;;;;;82.33;60.00;;;;;4.44;68.66;102608.50;4981568;28;45267;-87
2022/01/25 11:08:13;;;;;;;;;85.00;63.33;;;;;4.91;68.79;102692.38;4999950;28;45441;-88
2022/01/25 11:10:57;;;;;;;;;81.67;62.33;;;;;4.65;68.84;102638.53;5000323;28;46402;-87
2022/01/25 11:15:56;;;;;;;;;79.33;60.67;;;;;5.05;68.44;102701.06;5004684;28;45361;-88
2022/01/25 11:18:21;;;;;;;;;85.67;66.00;;;;;4.48;67.94;102589.66;4985599;28;45452;-87
2022/01/25 11:20:50;;;;;;;;;79.33;61.67;;;;;4.90;67.62;102647.88;4987198;28;46264;-87
2022/01/25 11:23:17;;;;;;;;;75.00;59.67;;;;;4.85;67.84;102650.25;5000724;28;45412;-87
2022/01/25 11:25:45;;;;;;;;;80.00;59.67;;;;;4.69;67.41;102603.09;5000074;28;45321;-87
2022/01/25 11:28:12;;;;;;;;;74.67;60.33;;;;;5.25;67.54;102694.44;4982107;28;45468;-88
2022/01/25 11:30:40;;;;;;;;;81.33;63.00;;;;;5.29;67.26;102697.31;4981278;28;48120;-87
2022/01/25 11:33:07;;;;;;;;;73.33;60.33;;;;;4.80;67.27;102605.56;4982097;28;45967;-87
2022/01/25 11:35:33;;;;;;;;;82.00;62.67;;;;;5.08;66.78;102654.22;4999154;28;45222;-86
2022/01/25 11:37:59;;;;;;;;;76.33;58.67;;;;;5.35;66.96;102700.31;4998757;28;45230;-89
2022/01/25 11:40:30;;;;;;;;;78.67;62.67;;;;;5.41;66.82;102697.16;4998515;28;45860;-88
2022/01/25 11:42:59;;;;;;;;;84.00;62.00;;;;;5.27;67.23;102658.84;4980722;28;45432;-88
2022/01/25 11:45:28;;;;;;;;;86.00;65.33;;;;;4.72;66.20;102541.53;4980841;28;45307;-88
2022/01/25 11:47:55;;;;;;;;;80.67;63.33;;;;;5.63;66.75;102707.19;5009991;28;45324;-88
2022/01/25 11:50:31;;;;;;;;;74.67;60.00;;;;;5.05;66.49;102589.66;4995535;28;47283;-88
2022/01/25 11:53:06;;;;;;;;;79.33;61.67;;;;;5.63;65.66;102691.50;4999666;28;45435;-86
2022/01/25 11:55:34;;;;;;;;;77.33;62.67;;;;;5.61;66.19;102690.50;4999306;28;45509;-88
2022/01/25 11:58:14;;;;;;;;;80.67;61.33;;;;;5.13;66.16;102606.69;4980862;28;45376;-87
2022/01/25 12:00:44;;;;;;;;;82.00;60.33;;;;;5.33;66.46;102646.16;4998598;28;45373;-88
2022/01/25 12:03:23;;;;;;;;;89.67;66.00;;;;;5.50;66.56;102679.41;4998236;28;45683;-87
2022/01/25 12:06:00;;;;;;;;;70.00;51.00;;;;;5.56;66.39;102679.75;4998222;28;45367;-88
2022/01/25 12:11:31;;;;;;;;;82.33;63.00;;;;;5.65;66.00;102679.41;4998461;28;45394;-88
2022/01/25 12:14:38;;;;;;;;;82.67;62.33;;;;;5.44;66.15;102626.78;4997008;28;45608;-88
2022/01/25 12:17:03;;;;;;;;;83.00;63.67;;;;;5.72;65.55;102677.25;4937622;28;45406;-88
2022/01/25 12:19:34;;;;;;;;;77.00;62.33;;;;;5.78;66.20;102674.09;4938037;28;45569;-88
2022/01/25 12:22:03;;;;;;;;;80.00;61.00;;;;;5.81;65.95;102683.81;4938510;28;45405;-88
2022/01/25 12:24:51;;;;;;;;;84.33;63.00;;;;;5.53;65.26;102611.63;4954132;28;45296;-88
2022/01/25 12:27:33;;;;;;;;;69.00;56.00;;;;;5.82;65.04;102662.06;4940759;28;45468;-88
2022/01/25 12:30:15;;;;;;;;;79.00;60.00;;;;;5.30;65.49;102560.63;4939824;28;45272;-87
2022/01/25 12:32:58;;;;;;;;;78.33;60.00;;;;;5.81;65.42;102642.88;4923813;28;47216;-88
2022/01/25 12:35:49;;;;;;;;;84.33;62.00;;;;;5.59;65.16;102605.88;4922839;28;45355;-86
2022/01/25 12:38:26;;;;;;;;;69.00;54.00;;;;;5.86;65.47;102672.81;4923132;28;45472;-88
2022/01/25 12:40:56;;;;;;;;;80.00;61.33;;;;;5.50;65.54;102603.63;4923675;28;45329;-88
2022/01/25 12:43:28;;;;;;;;;83.67;61.67;;;;;4.92;65.89;102503.53;4922755;28;46801;-89
2022/01/25 12:46:00;;;;;;;;;82.33;56.67;;;;;5.63;65.26;102628.75;4922375;28;45509;-88
2022/01/25 12:48:42;;;;;;;;;80.33;62.33;;;;;5.28;65.88;102538.72;4921759;28;45478;-88
2022/01/25 12:51:10;;;;;;;;;76.67;60.00;;;;;5.86;65.60;102646.66;4937945;28;45313;-87
2022/01/25 12:53:40;;;;;;;;;85.67;64.67;;;;;5.77;65.73;102639.97;4941801;28;46018;-88
2022/01/25 12:56:14;;;;;;;;;80.67;61.33;;;;;5.37;64.98;102574.94;4998379;28;45338;-87
2022/01/25 12:58:41;;;;;;;;;82.67;62.33;;;;;5.35;65.60;102585.31;5009361;28;45377;-87
2022/01/25 13:01:11;;;;;;;;;79.67;62.00;;;;;5.55;66.22;102607.38;5014926;28;45383;-88
2022/01/25 13:03:41;;;;;;;;;78.33;59.00;;;;;5.52;65.78;102594.16;4987008;28;47956;-89
2022/01/25 13:06:16;;;;;;;;;84.00;66.67;;;;;5.79;65.47;102618.34;5000588;28;45289;-86
2022/01/25 13:08:57;;;;;;;;;79.33;62.33;;;;;5.20;65.29;102510.38;4999143;28;45265;-88
2022/01/25 13:11:42;;;;;;;;;80.00;63.33;;;;;5.94;65.07;102626.19;4998601;28;45435;-87
2022/01/25 13:16:55;;;;;;;;;65.67;53.67;;;;;5.53;64.68;102556.72;4997156;28;45163;-87